sensor_id;sensor_type;location;lat;lon;timestamp;temperature;humidity
33673;DHT22;20011;51.510;9.942;2024-01-07T00:00:40;5.90;99.90
33673;DHT22;20011;51.510;9.942;2024-01-07T00:03:07;5.90;99.90
33673;DHT22;20011;51.510;9.942;2024-01-07T00:05:36;5.90;99.90
33673;DHT22;20011;51.510;9.942;2024-01-07T00:08:04;5.80;99.90
33673;DHT22;20011;51.510;9.942;2024-01-07T00:10:31;5.90;99.90
33673;DHT22;20011;51.510;9.942;2024-01-07T00:12:58;5.90;99.90
33673;DHT22;20011;51.510;9.942;2024-01-07T00:15:26;5.90;99.90
33673;DHT22;20011;51.510;9.942;2024-01-07T00:17:53;5.90;99.90
33673;DHT22;20011;51.510;9.942;2024-01-07T00:20:21;6.00;99.90
33673;DHT22;20011;51.510;9.942;2024-01-07T00:22:47;5.80;99.90
33673;DHT22;20011;51.510;9.942;2024-01-07T00:25:14;5.80;99.90
33673;DHT22;20011;51.510;9.942;2024-01-07T00:27:41;5.90;99.90
33673;DHT22;20011;51.510;9.942;2024-01-07T00:30:09;6.00;99.90
33673;DHT22;20011;51.510;9.942;2024-01-07T00:32:36;6.00;99.90
33673;DHT22;20011;51.510;9.942;2024-01-07T00:35:03;5.90;99.90
33673;DHT22;20011;51.510;9.942;2024-01-07T00:37:30;5.70;99.90
33673;DHT22;20011;51.510;9.942;2024-01-07T00:39:58;5.80;99.90
33673;DHT22;20011;51.510;9.942;2024-01-07T00:42:25;5.70;99.90
33673;DHT22;20011;51.510;9.942;2024-01-07T00:44:52;5.90;99.90
33673;DHT22;20011;51.510;9.942;2024-01-07T00:47:19;5.80;99.90
33673;DHT22;20011;51.510;9.942;2024-01-07T00:49:46;5.60;99.90
33673;DHT22;20011;51.510;9.942;2024-01-07T00:52:13;5.80;99.90
33673;DHT22;20011;51.510;9.942;2024-01-07T00:54:40;5.70;99.90
33673;DHT22;20011;51.510;9.942;2024-01-07T00:57:07;5.70;99.90
33673;DHT22;20011;51.510;9.942;2024-01-07T00:59:34;5.60;99.90
33673;DHT22;20011;51.510;9.942;2024-01-07T01:02:01;5.70;99.90
33673;DHT22;20011;51.510;9.942;2024-01-07T01:04:28;5.80;99.90
33673;DHT22;20011;51.510;9.942;2024-01-07T01:06:56;5.90;99.90
33673;DHT22;20011;51.510;9.942;2024-01-07T01:09:23;5.80;99.90
33673;DHT22;20011;51.510;9.942;2024-01-07T01:11:50;5.70;99.90
33673;DHT22;20011;51.510;9.942;2024-01-07T01:14:17;5.70;99.90
33673;DHT22;20011;51.510;9.942;2024-01-07T01:16:44;5.70;99.90
33673;DHT22;20011;51.510;9.942;2024-01-07T01:19:11;5.70;99.90
33673;DHT22;20011;51.510;9.942;2024-01-07T01:21:38;5.70;99.90
33673;DHT22;20011;51.510;9.942;2024-01-07T01:24:05;5.70;99.90
33673;DHT22;20011;51.510;9.942;2024-01-07T01:26:33;5.70;99.90
33673;DHT22;20011;51.510;9.942;2024-01-07T01:29:00;5.70;99.90
33673;DHT22;20011;51.510;9.942;2024-01-07T01:31:27;5.70;99.90
33673;DHT22;20011;51.510;9.942;2024-01-07T01:33:54;5.80;99.90
33673;DHT22;20011;51.510;9.942;2024-01-07T01:36:21;5.60;99.90
33673;DHT22;20011;51.510;9.942;2024-01-07T01:38:48;5.60;99.90
33673;DHT22;20011;51.510;9.942;2024-01-07T01:41:16;5.60;99.90
33673;DHT22;20011;51.510;9.942;2024-01-07T01:43:43;5.70;99.90
33673;DHT22;20011;51.510;9.942;2024-01-07T01:46:10;5.70;99.90
33673;DHT22;20011;51.510;9.942;2024-01-07T01:48:37;5.70;99.90
33673;DHT22;20011;51.510;9.942;2024-01-07T01:51:04;5.70;99.90
33673;DHT22;20011;51.510;9.942;2024-01-07T01:53:32;5.70;99.90
33673;DHT22;20011;51.510;9.942;2024-01-07T01:56:01;5.70;99.90
33673;DHT22;20011;51.510;9.942;2024-01-07T01:58:29;5.60;99.90
33673;DHT22;20011;51.510;9.942;2024-01-07T02:00:57;5.70;99.90
33673;DHT22;20011;51.510;9.942;2024-01-07T02:03:24;5.60;99.90
33673;DHT22;20011;51.510;9.942;2024-01-07T02:05:53;5.60;99.90
33673;DHT22;20011;51.510;9.942;2024-01-07T02:08:20;5.60;99.90
33673;DHT22;20011;51.510;9.942;2024-01-07T02:10:48;5.60;99.90
33673;DHT22;20011;51.510;9.942;2024-01-07T02:13:15;5.60;99.90
33673;DHT22;20011;51.510;9.942;2024-01-07T02:15:43;5.60;99.90
33673;DHT22;20011;51.510;9.942;2024-01-07T02:18:10;5.50;99.90
33673;DHT22;20011;51.510;9.942;2024-01-07T02:20:37;5.60;99.90
33673;DHT22;20011;51.510;9.942;2024-01-07T02:23:04;5.50;99.90
33673;DHT22;20011;51.510;9.942;2024-01-07T02:25:36;5.60;99.90
33673;DHT22;20011;51.510;9.942;2024-01-07T02:28:04;5.50;99.90
33673;DHT22;20011;51.510;9.942;2024-01-07T02:30:31;5.60;99.90
33673;DHT22;20011;51.510;9.942;2024-01-07T02:33:02;5.50;99.90
33673;DHT22;20011;51.510;9.942;2024-01-07T02:35:32;5.50;99.90
33673;DHT22;20011;51.510;9.942;2024-01-07T02:37:59;5.50;99.90
33673;DHT22;20011;51.510;9.942;2024-01-07T02:40:26;5.50;99.90
33673;DHT22;20011;51.510;9.942;2024-01-07T02:42:53;5.30;99.90
33673;DHT22;20011;51.510;9.942;2024-01-07T02:45:21;5.40;99.90
33673;DHT22;20011;51.510;9.942;2024-01-07T02:47:48;5.40;99.90
33673;DHT22;20011;51.510;9.942;2024-01-07T02:50:15;5.50;99.90
33673;DHT22;20011;51.510;9.942;2024-01-07T02:52:43;5.30;99.90
33673;DHT22;20011;51.510;9.942;2024-01-07T02:55:10;5.50;99.90
33673;DHT22;20011;51.510;9.942;2024-01-07T02:57:37;5.40;99.90
33673;DHT22;20011;51.510;9.942;2024-01-07T03:00:04;5.50;99.90
33673;DHT22;20011;51.510;9.942;2024-01-07T03:02:31;5.50;99.90
33673;DHT22;20011;51.510;9.942;2024-01-07T03:04:59;5.40;99.90
33673;DHT22;20011;51.510;9.942;2024-01-07T03:07:26;5.30;99.90
33673;DHT22;20011;51.510;9.942;2024-01-07T03:09:53;5.40;99.90
33673;DHT22;20011;51.510;9.942;2024-01-07T03:12:20;5.40;99.90
33673;DHT22;20011;51.510;9.942;2024-01-07T03:14:47;5.30;99.90
33673;DHT22;20011;51.510;9.942;2024-01-07T03:17:14;5.30;99.90
33673;DHT22;20011;51.510;9.942;2024-01-07T03:19:43;5.20;99.90
33673;DHT22;20011;51.510;9.942;2024-01-07T03:22:10;5.20;99.90
33673;DHT22;20011;51.510;9.942;2024-01-07T03:24:38;5.20;99.90
33673;DHT22;20011;51.510;9.942;2024-01-07T03:27:05;5.30;99.90
33673;DHT22;20011;51.510;9.942;2024-01-07T03:29:32;5.20;99.90
33673;DHT22;20011;51.510;9.942;2024-01-07T03:31:59;5.20;99.90
33673;DHT22;20011;51.510;9.942;2024-01-07T03:34:26;5.20;99.90
33673;DHT22;20011;51.510;9.942;2024-01-07T03:36:53;5.20;99.90
33673;DHT22;20011;51.510;9.942;2024-01-07T03:39:21;5.20;99.90
33673;DHT22;20011;51.510;9.942;2024-01-07T03:41:54;5.20;99.90
33673;DHT22;20011;51.510;9.942;2024-01-07T03:44:21;5.10;99.90
33673;DHT22;20011;51.510;9.942;2024-01-07T03:46:48;5.00;99.90
33673;DHT22;20011;51.510;9.942;2024-01-07T03:49:15;5.10;99.90
33673;DHT22;20011;51.510;9.942;2024-01-07T03:51:42;4.90;99.90
33673;DHT22;20011;51.510;9.942;2024-01-07T03:54:09;5.00;99.90
33673;DHT22;20011;51.510;9.942;2024-01-07T03:56:36;5.00;99.90
33673;DHT22;20011;51.510;9.942;2024-01-07T03:59:03;5.00;99.90
33673;DHT22;20011;51.510;9.942;2024-01-07T04:01:30;4.90;99.90
33673;DHT22;20011;51.510;9.942;2024-01-07T04:03:57;4.80;99.90
33673;DHT22;20011;51.510;9.942;2024-01-07T04:06:25;4.80;99.90
33673;DHT22;20011;51.510;9.942;2024-01-07T04:08:52;4.60;99.90
33673;DHT22;20011;51.510;9.942;2024-01-07T04:11:19;4.50;99.90
33673;DHT22;20011;51.510;9.942;2024-01-07T04:13:46;4.50;99.90
33673;DHT22;20011;51.510;9.942;2024-01-07T04:16:19;4.60;99.90
33673;DHT22;20011;51.510;9.942;2024-01-07T04:18:47;4.40;99.90
33673;DHT22;20011;51.510;9.942;2024-01-07T04:21:20;4.60;99.90
33673;DHT22;20011;51.510;9.942;2024-01-07T04:23:47;4.50;99.90
33673;DHT22;20011;51.510;9.942;2024-01-07T04:26:14;4.50;99.90
33673;DHT22;20011;51.510;9.942;2024-01-07T04:28:41;4.40;99.90
33673;DHT22;20011;51.510;9.942;2024-01-07T04:31:09;4.50;99.90
33673;DHT22;20011;51.510;9.942;2024-01-07T04:33:36;4.50;99.90
33673;DHT22;20011;51.510;9.942;2024-01-07T04:36:04;4.50;99.90
33673;DHT22;20011;51.510;9.942;2024-01-07T04:38:32;4.60;99.90
33673;DHT22;20011;51.510;9.942;2024-01-07T04:40:59;4.60;99.90
33673;DHT22;20011;51.510;9.942;2024-01-07T04:43:26;4.50;99.90
33673;DHT22;20011;51.510;9.942;2024-01-07T04:45:53;4.40;99.90
33673;DHT22;20011;51.510;9.942;2024-01-07T04:48:20;4.40;99.90
33673;DHT22;20011;51.510;9.942;2024-01-07T04:50:47;4.40;99.90
33673;DHT22;20011;51.510;9.942;2024-01-07T04:53:14;4.40;99.90
33673;DHT22;20011;51.510;9.942;2024-01-07T04:55:41;4.40;99.90
33673;DHT22;20011;51.510;9.942;2024-01-07T04:58:08;4.40;99.90
33673;DHT22;20011;51.510;9.942;2024-01-07T05:00:35;4.40;99.90
33673;DHT22;20011;51.510;9.942;2024-01-07T05:03:02;4.50;99.90
33673;DHT22;20011;51.510;9.942;2024-01-07T05:05:29;4.40;99.90
33673;DHT22;20011;51.510;9.942;2024-01-07T05:07:56;4.40;99.90
33673;DHT22;20011;51.510;9.942;2024-01-07T05:10:25;4.50;99.90
33673;DHT22;20011;51.510;9.942;2024-01-07T05:12:52;4.40;99.90
33673;DHT22;20011;51.510;9.942;2024-01-07T05:15:19;4.40;99.90
33673;DHT22;20011;51.510;9.942;2024-01-07T05:17:46;4.50;99.90
33673;DHT22;20011;51.510;9.942;2024-01-07T05:20:15;4.50;99.90
33673;DHT22;20011;51.510;9.942;2024-01-07T05:22:42;4.40;99.90
33673;DHT22;20011;51.510;9.942;2024-01-07T05:25:09;4.30;99.90
33673;DHT22;20011;51.510;9.942;2024-01-07T05:27:36;4.50;99.90
33673;DHT22;20011;51.510;9.942;2024-01-07T05:30:04;4.40;99.90
33673;DHT22;20011;51.510;9.942;2024-01-07T05:32:31;4.30;99.90
33673;DHT22;20011;51.510;9.942;2024-01-07T05:34:58;4.20;99.90
33673;DHT22;20011;51.510;9.942;2024-01-07T05:37:25;4.30;99.90
33673;DHT22;20011;51.510;9.942;2024-01-07T05:39:52;4.50;99.90
33673;DHT22;20011;51.510;9.942;2024-01-07T05:42:19;4.50;99.90
33673;DHT22;20011;51.510;9.942;2024-01-07T05:44:46;4.50;99.90
33673;DHT22;20011;51.510;9.942;2024-01-07T05:47:13;4.50;99.90
33673;DHT22;20011;51.510;9.942;2024-01-07T05:49:40;4.40;99.90
33673;DHT22;20011;51.510;9.942;2024-01-07T05:52:07;4.50;99.90
33673;DHT22;20011;51.510;9.942;2024-01-07T05:54:34;4.40;99.90
33673;DHT22;20011;51.510;9.942;2024-01-07T05:57:01;4.40;99.90
33673;DHT22;20011;51.510;9.942;2024-01-07T05:59:28;4.20;99.90
33673;DHT22;20011;51.510;9.942;2024-01-07T06:01:59;4.30;99.90
33673;DHT22;20011;51.510;9.942;2024-01-07T06:04:26;4.20;99.90
33673;DHT22;20011;51.510;9.942;2024-01-07T06:06:54;4.30;99.90
33673;DHT22;20011;51.510;9.942;2024-01-07T06:09:21;4.30;99.90
33673;DHT22;20011;51.510;9.942;2024-01-07T06:11:48;4.30;99.90
33673;DHT22;20011;51.510;9.942;2024-01-07T06:14:15;4.30;99.90
33673;DHT22;20011;51.510;9.942;2024-01-07T06:16:42;4.30;99.90
33673;DHT22;20011;51.510;9.942;2024-01-07T06:19:09;4.30;99.90
33673;DHT22;20011;51.510;9.942;2024-01-07T06:21:36;4.30;99.90
33673;DHT22;20011;51.510;9.942;2024-01-07T06:24:03;4.30;99.90
33673;DHT22;20011;51.510;9.942;2024-01-07T06:26:31;4.20;99.90
33673;DHT22;20011;51.510;9.942;2024-01-07T06:28:58;4.00;99.90
33673;DHT22;20011;51.510;9.942;2024-01-07T06:31:25;4.10;99.90
33673;DHT22;20011;51.510;9.942;2024-01-07T06:33:52;4.10;99.90
33673;DHT22;20011;51.510;9.942;2024-01-07T06:36:20;4.10;99.90
33673;DHT22;20011;51.510;9.942;2024-01-07T06:38:46;4.10;99.90
33673;DHT22;20011;51.510;9.942;2024-01-07T06:41:13;4.10;99.90
33673;DHT22;20011;51.510;9.942;2024-01-07T06:43:40;4.10;99.90
33673;DHT22;20011;51.510;9.942;2024-01-07T06:46:07;4.00;99.90
33673;DHT22;20011;51.510;9.942;2024-01-07T06:48:34;4.00;99.90
33673;DHT22;20011;51.510;9.942;2024-01-07T06:51:01;4.00;99.90
33673;DHT22;20011;51.510;9.942;2024-01-07T06:53:28;4.00;99.90
33673;DHT22;20011;51.510;9.942;2024-01-07T06:55:55;4.10;99.90
33673;DHT22;20011;51.510;9.942;2024-01-07T06:58:22;4.10;99.90
33673;DHT22;20011;51.510;9.942;2024-01-07T07:00:49;4.00;99.90
33673;DHT22;20011;51.510;9.942;2024-01-07T07:03:17;4.00;99.90
33673;DHT22;20011;51.510;9.942;2024-01-07T07:05:44;4.10;99.90
33673;DHT22;20011;51.510;9.942;2024-01-07T07:08:11;4.10;99.90
33673;DHT22;20011;51.510;9.942;2024-01-07T07:10:38;4.10;99.90
33673;DHT22;20011;51.510;9.942;2024-01-07T07:13:05;3.90;99.90
33673;DHT22;20011;51.510;9.942;2024-01-07T07:15:33;3.90;99.90
33673;DHT22;20011;51.510;9.942;2024-01-07T07:18:00;3.90;99.90
33673;DHT22;20011;51.510;9.942;2024-01-07T07:20:27;4.00;99.90
33673;DHT22;20011;51.510;9.942;2024-01-07T07:22:54;3.90;99.90
33673;DHT22;20011;51.510;9.942;2024-01-07T07:25:21;3.90;99.90
33673;DHT22;20011;51.510;9.942;2024-01-07T07:27:48;3.90;99.90
33673;DHT22;20011;51.510;9.942;2024-01-07T07:30:16;3.80;99.90
33673;DHT22;20011;51.510;9.942;2024-01-07T07:32:43;3.80;99.90
33673;DHT22;20011;51.510;9.942;2024-01-07T07:35:11;3.90;99.90
33673;DHT22;20011;51.510;9.942;2024-01-07T07:37:38;3.80;99.90
33673;DHT22;20011;51.510;9.942;2024-01-07T07:40:05;3.80;99.90
33673;DHT22;20011;51.510;9.942;2024-01-07T07:42:33;3.70;99.90
33673;DHT22;20011;51.510;9.942;2024-01-07T07:45:01;4.00;99.90
33673;DHT22;20011;51.510;9.942;2024-01-07T07:47:29;3.80;99.90
33673;DHT22;20011;51.510;9.942;2024-01-07T07:49:57;3.90;99.90
33673;DHT22;20011;51.510;9.942;2024-01-07T07:52:24;4.00;99.90
33673;DHT22;20011;51.510;9.942;2024-01-07T07:54:53;4.00;99.90
33673;DHT22;20011;51.510;9.942;2024-01-07T07:57:21;4.00;99.90
33673;DHT22;20011;51.510;9.942;2024-01-07T07:59:48;4.00;99.90
33673;DHT22;20011;51.510;9.942;2024-01-07T08:02:16;3.90;99.90
33673;DHT22;20011;51.510;9.942;2024-01-07T08:04:43;3.80;99.90
33673;DHT22;20011;51.510;9.942;2024-01-07T08:07:10;3.90;99.90
33673;DHT22;20011;51.510;9.942;2024-01-07T08:09:37;3.70;99.90
33673;DHT22;20011;51.510;9.942;2024-01-07T08:12:05;3.80;99.90
33673;DHT22;20011;51.510;9.942;2024-01-07T08:14:33;3.80;99.90
33673;DHT22;20011;51.510;9.942;2024-01-07T08:17:00;3.80;99.90
33673;DHT22;20011;51.510;9.942;2024-01-07T08:19:27;3.70;99.90
33673;DHT22;20011;51.510;9.942;2024-01-07T08:21:54;3.70;99.90
33673;DHT22;20011;51.510;9.942;2024-01-07T08:24:23;3.70;99.90
33673;DHT22;20011;51.510;9.942;2024-01-07T08:26:50;3.70;99.90
33673;DHT22;20011;51.510;9.942;2024-01-07T08:29:17;3.70;99.90
33673;DHT22;20011;51.510;9.942;2024-01-07T08:31:44;3.70;99.90
33673;DHT22;20011;51.510;9.942;2024-01-07T08:34:11;3.60;99.90
33673;DHT22;20011;51.510;9.942;2024-01-07T08:36:38;3.70;99.90
33673;DHT22;20011;51.510;9.942;2024-01-07T08:39:05;3.70;99.90
33673;DHT22;20011;51.510;9.942;2024-01-07T08:41:32;3.60;99.90
33673;DHT22;20011;51.510;9.942;2024-01-07T08:43:59;3.50;99.90
33673;DHT22;20011;51.510;9.942;2024-01-07T08:46:26;3.50;99.90
33673;DHT22;20011;51.510;9.942;2024-01-07T08:48:52;3.60;99.90
33673;DHT22;20011;51.510;9.942;2024-01-07T08:51:20;3.50;99.90
33673;DHT22;20011;51.510;9.942;2024-01-07T08:53:46;3.60;99.90
33673;DHT22;20011;51.510;9.942;2024-01-07T08:56:13;3.40;99.90
33673;DHT22;20011;51.510;9.942;2024-01-07T08:58:41;3.50;99.90
33673;DHT22;20011;51.510;9.942;2024-01-07T09:01:09;3.40;99.90
33673;DHT22;20011;51.510;9.942;2024-01-07T09:03:36;3.30;99.90
33673;DHT22;20011;51.510;9.942;2024-01-07T09:06:03;3.30;99.90
33673;DHT22;20011;51.510;9.942;2024-01-07T09:08:30;3.30;99.90
33673;DHT22;20011;51.510;9.942;2024-01-07T09:10:57;3.30;99.90
33673;DHT22;20011;51.510;9.942;2024-01-07T09:13:27;3.40;99.90
33673;DHT22;20011;51.510;9.942;2024-01-07T09:15:54;3.40;99.90
33673;DHT22;20011;51.510;9.942;2024-01-07T09:18:21;3.40;99.90
33673;DHT22;20011;51.510;9.942;2024-01-07T09:20:48;3.50;99.90
33673;DHT22;20011;51.510;9.942;2024-01-07T09:23:15;3.50;99.90
33673;DHT22;20011;51.510;9.942;2024-01-07T09:25:44;3.50;99.90
33673;DHT22;20011;51.510;9.942;2024-01-07T09:28:13;3.50;99.90
33673;DHT22;20011;51.510;9.942;2024-01-07T09:30:40;3.40;99.90
33673;DHT22;20011;51.510;9.942;2024-01-07T09:33:07;3.30;99.90
33673;DHT22;20011;51.510;9.942;2024-01-07T09:35:34;3.40;99.90
33673;DHT22;20011;51.510;9.942;2024-01-07T09:38:01;3.30;99.90
33673;DHT22;20011;51.510;9.942;2024-01-07T09:40:28;3.30;99.90
33673;DHT22;20011;51.510;9.942;2024-01-07T09:42:56;3.50;99.90
33673;DHT22;20011;51.510;9.942;2024-01-07T09:45:24;3.40;99.90
33673;DHT22;20011;51.510;9.942;2024-01-07T09:47:51;3.30;99.90
33673;DHT22;20011;51.510;9.942;2024-01-07T09:50:19;3.20;99.90
33673;DHT22;20011;51.510;9.942;2024-01-07T09:52:46;3.10;99.90
33673;DHT22;20011;51.510;9.942;2024-01-07T09:55:40;3.20;99.90
33673;DHT22;20011;51.510;9.942;2024-01-07T09:58:07;3.20;99.90
33673;DHT22;20011;51.510;9.942;2024-01-07T10:00:34;3.10;99.90
33673;DHT22;20011;51.510;9.942;2024-01-07T10:03:02;3.10;99.90
33673;DHT22;20011;51.510;9.942;2024-01-07T10:05:29;3.10;99.90
33673;DHT22;20011;51.510;9.942;2024-01-07T10:07:56;3.10;99.10
33673;DHT22;20011;51.510;9.942;2024-01-07T10:10:24;2.90;96.60
33673;DHT22;20011;51.510;9.942;2024-01-07T10:12:51;2.70;96.30
33673;DHT22;20011;51.510;9.942;2024-01-07T10:15:20;2.80;96.10
33673;DHT22;20011;51.510;9.942;2024-01-07T10:17:47;2.50;96.00
33673;DHT22;20011;51.510;9.942;2024-01-07T10:20:16;2.50;96.40
33673;DHT22;20011;51.510;9.942;2024-01-07T10:22:49;2.40;96.00
33673;DHT22;20011;51.510;9.942;2024-01-07T10:25:18;2.50;96.00
33673;DHT22;20011;51.510;9.942;2024-01-07T10:27:45;2.40;96.60
33673;DHT22;20011;51.510;9.942;2024-01-07T10:30:12;2.60;95.70
33673;DHT22;20011;51.510;9.942;2024-01-07T10:32:42;2.60;96.20
33673;DHT22;20011;51.510;9.942;2024-01-07T10:35:13;2.60;95.70
33673;DHT22;20011;51.510;9.942;2024-01-07T10:37:41;2.60;95.40
33673;DHT22;20011;51.510;9.942;2024-01-07T10:40:11;2.80;94.90
33673;DHT22;20011;51.510;9.942;2024-01-07T10:42:39;2.70;95.20
33673;DHT22;20011;51.510;9.942;2024-01-07T10:45:07;2.60;95.00
33673;DHT22;20011;51.510;9.942;2024-01-07T10:47:34;2.60;95.30
33673;DHT22;20011;51.510;9.942;2024-01-07T10:50:03;2.60;95.20
33673;DHT22;20011;51.510;9.942;2024-01-07T10:52:33;2.60;96.10
33673;DHT22;20011;51.510;9.942;2024-01-07T10:55:09;2.50;95.60
33673;DHT22;20011;51.510;9.942;2024-01-07T10:57:47;2.50;95.70
33673;DHT22;20011;51.510;9.942;2024-01-07T11:00:15;2.50;95.30
33673;DHT22;20011;51.510;9.942;2024-01-07T11:03:18;2.60;95.70
33673;DHT22;20011;51.510;9.942;2024-01-07T11:05:59;2.70;95.40
33673;DHT22;20011;51.510;9.942;2024-01-07T11:09:19;2.70;94.00
33673;DHT22;20011;51.510;9.942;2024-01-07T11:11:46;2.60;94.30
33673;DHT22;20011;51.510;9.942;2024-01-07T11:14:39;2.50;94.60
33673;DHT22;20011;51.510;9.942;2024-01-07T11:17:07;2.70;94.40
33673;DHT22;20011;51.510;9.942;2024-01-07T11:19:38;2.60;95.30
33673;DHT22;20011;51.510;9.942;2024-01-07T11:22:24;2.70;95.10
33673;DHT22;20011;51.510;9.942;2024-01-07T11:24:52;2.80;94.80
33673;DHT22;20011;51.510;9.942;2024-01-07T11:27:21;2.90;95.70
33673;DHT22;20011;51.510;9.942;2024-01-07T11:29:55;2.80;95.00
33673;DHT22;20011;51.510;9.942;2024-01-07T11:32:24;2.70;94.80
33673;DHT22;20011;51.510;9.942;2024-01-07T11:34:55;2.80;94.30
33673;DHT22;20011;51.510;9.942;2024-01-07T11:37:24;2.70;94.20
33673;DHT22;20011;51.510;9.942;2024-01-07T11:39:55;2.70;94.40
33673;DHT22;20011;51.510;9.942;2024-01-07T11:42:22;2.80;94.10
33673;DHT22;20011;51.510;9.942;2024-01-07T11:44:53;2.80;94.00
33673;DHT22;20011;51.510;9.942;2024-01-07T11:47:22;2.80;94.10
33673;DHT22;20011;51.510;9.942;2024-01-07T11:49:49;2.80;93.80
33673;DHT22;20011;51.510;9.942;2024-01-07T11:52:17;2.70;94.10
33673;DHT22;20011;51.510;9.942;2024-01-07T11:54:44;2.90;93.50
33673;DHT22;20011;51.510;9.942;2024-01-07T11:57:13;2.80;93.60
33673;DHT22;20011;51.510;9.942;2024-01-07T11:59:40;2.80;93.30
33673;DHT22;20011;51.510;9.942;2024-01-07T12:02:11;2.80;93.50
33673;DHT22;20011;51.510;9.942;2024-01-07T12:04:37;2.60;93.90
33673;DHT22;20011;51.510;9.942;2024-01-07T12:07:04;2.80;94.40
33673;DHT22;20011;51.510;9.942;2024-01-07T12:09:32;2.60;93.70
33673;DHT22;20011;51.510;9.942;2024-01-07T12:11:59;2.70;93.90
33673;DHT22;20011;51.510;9.942;2024-01-07T12:14:28;2.80;94.60
33673;DHT22;20011;51.510;9.942;2024-01-07T12:16:55;3.00;94.40
33673;DHT22;20011;51.510;9.942;2024-01-07T12:19:22;2.90;94.30
33673;DHT22;20011;51.510;9.942;2024-01-07T12:22:02;3.10;93.90
33673;DHT22;20011;51.510;9.942;2024-01-07T12:24:29;2.90;94.00
33673;DHT22;20011;51.510;9.942;2024-01-07T12:26:56;3.00;93.50
33673;DHT22;20011;51.510;9.942;2024-01-07T12:29:23;3.00;93.90
33673;DHT22;20011;51.510;9.942;2024-01-07T12:31:53;2.90;93.90
33673;DHT22;20011;51.510;9.942;2024-01-07T12:34:21;2.90;93.70
33673;DHT22;20011;51.510;9.942;2024-01-07T12:36:50;2.90;93.90
33673;DHT22;20011;51.510;9.942;2024-01-07T12:39:18;2.90;93.50
33673;DHT22;20011;51.510;9.942;2024-01-07T12:41:45;3.00;93.50
33673;DHT22;20011;51.510;9.942;2024-01-07T12:44:14;2.90;93.80
33673;DHT22;20011;51.510;9.942;2024-01-07T12:46:40;2.90;94.20
33673;DHT22;20011;51.510;9.942;2024-01-07T12:49:07;3.00;94.10
33673;DHT22;20011;51.510;9.942;2024-01-07T12:51:35;2.90;94.50
33673;DHT22;20011;51.510;9.942;2024-01-07T12:54:02;3.00;94.00
33673;DHT22;20011;51.510;9.942;2024-01-07T12:56:30;3.00;94.40
33673;DHT22;20011;51.510;9.942;2024-01-07T12:58:58;2.90;94.60
33673;DHT22;20011;51.510;9.942;2024-01-07T13:01:25;2.90;94.50
33673;DHT22;20011;51.510;9.942;2024-01-07T13:03:52;2.80;95.40
33673;DHT22;20011;51.510;9.942;2024-01-07T13:06:19;2.90;94.80
33673;DHT22;20011;51.510;9.942;2024-01-07T13:08:46;2.90;95.10
33673;DHT22;20011;51.510;9.942;2024-01-07T13:11:13;3.00;94.40
33673;DHT22;20011;51.510;9.942;2024-01-07T13:13:42;2.90;94.40
33673;DHT22;20011;51.510;9.942;2024-01-07T13:16:09;3.10;94.20
33673;DHT22;20011;51.510;9.942;2024-01-07T13:18:38;2.90;94.70
33673;DHT22;20011;51.510;9.942;2024-01-07T13:21:05;2.90;94.30
33673;DHT22;20011;51.510;9.942;2024-01-07T13:23:33;3.00;94.10
33673;DHT22;20011;51.510;9.942;2024-01-07T13:26:00;3.00;94.30
33673;DHT22;20011;51.510;9.942;2024-01-07T13:28:32;2.90;95.20
33673;DHT22;20011;51.510;9.942;2024-01-07T13:30:59;3.00;95.40
33673;DHT22;20011;51.510;9.942;2024-01-07T13:33:26;3.00;95.50
33673;DHT22;20011;51.510;9.942;2024-01-07T13:35:54;3.00;94.60
33673;DHT22;20011;51.510;9.942;2024-01-07T13:38:21;2.80;94.70
33673;DHT22;20011;51.510;9.942;2024-01-07T13:40:48;2.80;94.50
33673;DHT22;20011;51.510;9.942;2024-01-07T13:43:15;2.90;94.50
33673;DHT22;20011;51.510;9.942;2024-01-07T13:45:42;3.00;94.50
33673;DHT22;20011;51.510;9.942;2024-01-07T13:48:09;3.00;94.40
33673;DHT22;20011;51.510;9.942;2024-01-07T13:50:37;2.90;94.80
33673;DHT22;20011;51.510;9.942;2024-01-07T13:53:04;2.90;94.60
33673;DHT22;20011;51.510;9.942;2024-01-07T13:55:31;3.10;94.70
33673;DHT22;20011;51.510;9.942;2024-01-07T13:57:58;3.00;94.90
33673;DHT22;20011;51.510;9.942;2024-01-07T14:00:26;3.10;94.50
33673;DHT22;20011;51.510;9.942;2024-01-07T14:02:53;3.20;94.40
33673;DHT22;20011;51.510;9.942;2024-01-07T14:05:20;3.10;94.50
33673;DHT22;20011;51.510;9.942;2024-01-07T14:07:47;3.10;95.00
33673;DHT22;20011;51.510;9.942;2024-01-07T14:10:15;3.20;94.20
33673;DHT22;20011;51.510;9.942;2024-01-07T14:12:44;3.20;94.80
33673;DHT22;20011;51.510;9.942;2024-01-07T14:15:11;3.00;94.40
33673;DHT22;20011;51.510;9.942;2024-01-07T14:17:38;3.10;94.80
33673;DHT22;20011;51.510;9.942;2024-01-07T14:20:06;3.10;94.20
33673;DHT22;20011;51.510;9.942;2024-01-07T14:22:34;3.30;94.30
33673;DHT22;20011;51.510;9.942;2024-01-07T14:25:01;3.20;94.40
33673;DHT22;20011;51.510;9.942;2024-01-07T14:27:30;3.30;94.00
33673;DHT22;20011;51.510;9.942;2024-01-07T14:29:57;3.20;93.50
33673;DHT22;20011;51.510;9.942;2024-01-07T14:32:23;3.30;93.70
33673;DHT22;20011;51.510;9.942;2024-01-07T14:34:51;3.30;93.60
33673;DHT22;20011;51.510;9.942;2024-01-07T14:37:18;3.20;94.30
33673;DHT22;20011;51.510;9.942;2024-01-07T14:39:47;3.30;94.60
33673;DHT22;20011;51.510;9.942;2024-01-07T14:42:14;3.40;94.60
33673;DHT22;20011;51.510;9.942;2024-01-07T14:44:41;3.30;94.40
33673;DHT22;20011;51.510;9.942;2024-01-07T14:47:16;3.30;95.00
33673;DHT22;20011;51.510;9.942;2024-01-07T14:49:44;3.30;95.00
33673;DHT22;20011;51.510;9.942;2024-01-07T14:52:11;3.40;95.30
33673;DHT22;20011;51.510;9.942;2024-01-07T14:54:39;3.20;95.50
33673;DHT22;20011;51.510;9.942;2024-01-07T14:57:06;3.20;95.50
33673;DHT22;20011;51.510;9.942;2024-01-07T14:59:35;3.30;95.90
33673;DHT22;20011;51.510;9.942;2024-01-07T15:02:03;3.20;96.20
33673;DHT22;20011;51.510;9.942;2024-01-07T15:04:30;3.30;96.00
33673;DHT22;20011;51.510;9.942;2024-01-07T15:06:58;3.20;96.40
33673;DHT22;20011;51.510;9.942;2024-01-07T15:09:26;3.20;97.20
33673;DHT22;20011;51.510;9.942;2024-01-07T15:11:54;3.30;97.20
33673;DHT22;20011;51.510;9.942;2024-01-07T15:14:21;3.20;96.70
33673;DHT22;20011;51.510;9.942;2024-01-07T15:16:48;3.20;97.20
33673;DHT22;20011;51.510;9.942;2024-01-07T15:19:21;3.30;96.70
33673;DHT22;20011;51.510;9.942;2024-01-07T15:21:48;3.30;96.40
33673;DHT22;20011;51.510;9.942;2024-01-07T15:24:15;3.30;96.80
33673;DHT22;20011;51.510;9.942;2024-01-07T15:26:42;3.20;96.60
33673;DHT22;20011;51.510;9.942;2024-01-07T15:29:09;3.30;96.60
33673;DHT22;20011;51.510;9.942;2024-01-07T15:31:36;3.40;96.10
33673;DHT22;20011;51.510;9.942;2024-01-07T15:34:03;3.20;96.50
33673;DHT22;20011;51.510;9.942;2024-01-07T15:36:32;3.20;95.60
33673;DHT22;20011;51.510;9.942;2024-01-07T15:38:59;3.30;95.70
33673;DHT22;20011;51.510;9.942;2024-01-07T15:41:26;3.50;96.10
33673;DHT22;20011;51.510;9.942;2024-01-07T15:43:56;3.40;95.80
33673;DHT22;20011;51.510;9.942;2024-01-07T15:46:23;3.30;96.10
33673;DHT22;20011;51.510;9.942;2024-01-07T15:48:50;3.30;95.90